sensor_id;sensor_type;location;lat;lon;timestamp;P1;durP1;ratioP1;P2;durP2;ratioP2
11763;SDS011;5939;56.522;14.950;2024-03-06T00:02:25;8.07;;;5.73;;
11763;SDS011;5939;56.522;14.950;2024-03-06T00:04:51;8.67;;;4.93;;
11763;SDS011;5939;56.522;14.950;2024-03-06T00:07:17;14.43;;;6.20;;
11763;SDS011;5939;56.522;14.950;2024-03-06T00:09:42;7.37;;;4.90;;
11763;SDS011;5939;56.522;14.950;2024-03-06T00:12:08;9.03;;;5.80;;
11763;SDS011;5939;56.522;14.950;2024-03-06T00:14:33;6.97;;;4.93;;
11763;SDS011;5939;56.522;14.950;2024-03-06T00:17:01;7.20;;;5.07;;
11763;SDS011;5939;56.522;14.950;2024-03-06T00:19:29;7.73;;;4.93;;
11763;SDS011;5939;56.522;14.950;2024-03-06T00:21:55;6.90;;;4.67;;
11763;SDS011;5939;56.522;14.950;2024-03-06T00:24:21;8.07;;;5.10;;
11763;SDS011;5939;56.522;14.950;2024-03-06T00:26:48;7.93;;;5.30;;
11763;SDS011;5939;56.522;14.950;2024-03-06T00:29:14;7.77;;;5.00;;
11763;SDS011;5939;56.522;14.950;2024-03-06T00:31:43;8.80;;;5.10;;
11763;SDS011;5939;56.522;14.950;2024-03-06T00:34:12;7.87;;;5.23;;
11763;SDS011;5939;56.522;14.950;2024-03-06T00:36:42;6.27;;;4.37;;
11763;SDS011;5939;56.522;14.950;2024-03-06T00:39:08;8.43;;;5.27;;
11763;SDS011;5939;56.522;14.950;2024-03-06T00:41:35;9.47;;;5.30;;
11763;SDS011;5939;56.522;14.950;2024-03-06T00:44:01;7.97;;;5.07;;
11763;SDS011;5939;56.522;14.950;2024-03-06T00:46:27;7.73;;;5.20;;
11763;SDS011;5939;56.522;14.950;2024-03-06T00:48:53;9.43;;;5.40;;
11763;SDS011;5939;56.522;14.950;2024-03-06T00:51:18;7.70;;;4.90;;
11763;SDS011;5939;56.522;14.950;2024-03-06T00:53:44;6.90;;;4.93;;
11763;SDS011;5939;56.522;14.950;2024-03-06T00:56:10;9.10;;;5.23;;
11763;SDS011;5939;56.522;14.950;2024-03-06T00:58:36;6.17;;;4.70;;
11763;SDS011;5939;56.522;14.950;2024-03-06T01:01:02;7.40;;;5.20;;
11763;SDS011;5939;56.522;14.950;2024-03-06T01:03:29;6.90;;;4.60;;
11763;SDS011;5939;56.522;14.950;2024-03-06T01:05:55;10.00;;;5.20;;
11763;SDS011;5939;56.522;14.950;2024-03-06T01:08:23;7.80;;;4.67;;
11763;SDS011;5939;56.522;14.950;2024-03-06T01:10:51;9.13;;;5.07;;
11763;SDS011;5939;56.522;14.950;2024-03-06T01:13:18;8.17;;;4.80;;
11763;SDS011;5939;56.522;14.950;2024-03-06T01:15:44;6.93;;;4.40;;
11763;SDS011;5939;56.522;14.950;2024-03-06T01:18:10;8.70;;;5.03;;
11763;SDS011;5939;56.522;14.950;2024-03-06T01:20:35;8.33;;;5.37;;
11763;SDS011;5939;56.522;14.950;2024-03-06T01:23:02;6.37;;;4.57;;
11763;SDS011;5939;56.522;14.950;2024-03-06T01:25:28;7.43;;;4.40;;
11763;SDS011;5939;56.522;14.950;2024-03-06T01:27:53;7.47;;;5.20;;
11763;SDS011;5939;56.522;14.950;2024-03-06T01:30:19;7.70;;;4.37;;
11763;SDS011;5939;56.522;14.950;2024-03-06T01:32:45;7.10;;;4.53;;
11763;SDS011;5939;56.522;14.950;2024-03-06T01:35:11;7.40;;;4.43;;
11763;SDS011;5939;56.522;14.950;2024-03-06T01:37:37;8.60;;;4.77;;
11763;SDS011;5939;56.522;14.950;2024-03-06T01:40:02;7.13;;;4.63;;
11763;SDS011;5939;56.522;14.950;2024-03-06T01:42:32;6.93;;;4.70;;
11763;SDS011;5939;56.522;14.950;2024-03-06T01:44:58;6.93;;;4.70;;
11763;SDS011;5939;56.522;14.950;2024-03-06T01:47:24;7.63;;;4.83;;
11763;SDS011;5939;56.522;14.950;2024-03-06T01:49:50;6.93;;;5.00;;
11763;SDS011;5939;56.522;14.950;2024-03-06T01:52:15;6.33;;;4.77;;
11763;SDS011;5939;56.522;14.950;2024-03-06T01:54:43;5.97;;;4.43;;
11763;SDS011;5939;56.522;14.950;2024-03-06T01:57:10;6.90;;;5.13;;
11763;SDS011;5939;56.522;14.950;2024-03-06T01:59:38;5.87;;;4.40;;
11763;SDS011;5939;56.522;14.950;2024-03-06T02:02:05;6.13;;;4.83;;
11763;SDS011;5939;56.522;14.950;2024-03-06T02:04:32;6.10;;;4.23;;
11763;SDS011;5939;56.522;14.950;2024-03-06T02:06:58;7.07;;;4.60;;
11763;SDS011;5939;56.522;14.950;2024-03-06T02:09:24;7.90;;;5.03;;
11763;SDS011;5939;56.522;14.950;2024-03-06T02:11:50;6.77;;;4.10;;
11763;SDS011;5939;56.522;14.950;2024-03-06T02:14:15;9.73;;;4.57;;
11763;SDS011;5939;56.522;14.950;2024-03-06T02:16:41;5.77;;;4.10;;
11763;SDS011;5939;56.522;14.950;2024-03-06T02:19:07;6.43;;;4.57;;
11763;SDS011;5939;56.522;14.950;2024-03-06T02:21:33;8.33;;;4.93;;
11763;SDS011;5939;56.522;14.950;2024-03-06T02:23:59;8.07;;;4.80;;
11763;SDS011;5939;56.522;14.950;2024-03-06T02:26:25;6.83;;;4.07;;
11763;SDS011;5939;56.522;14.950;2024-03-06T02:28:52;6.77;;;4.30;;
11763;SDS011;5939;56.522;14.950;2024-03-06T02:31:19;6.90;;;4.80;;
11763;SDS011;5939;56.522;14.950;2024-03-06T02:33:45;5.93;;;4.17;;
11763;SDS011;5939;56.522;14.950;2024-03-06T02:36:17;6.10;;;4.47;;
11763;SDS011;5939;56.522;14.950;2024-03-06T02:38:43;5.53;;;4.33;;
11763;SDS011;5939;56.522;14.950;2024-03-06T02:41:10;7.17;;;4.20;;
11763;SDS011;5939;56.522;14.950;2024-03-06T02:43:36;7.30;;;4.20;;
11763;SDS011;5939;56.522;14.950;2024-03-06T02:46:02;6.73;;;3.90;;
11763;SDS011;5939;56.522;14.950;2024-03-06T02:48:28;8.10;;;4.40;;
11763;SDS011;5939;56.522;14.950;2024-03-06T02:50:54;7.23;;;4.30;;
11763;SDS011;5939;56.522;14.950;2024-03-06T02:53:21;6.87;;;4.40;;
11763;SDS011;5939;56.522;14.950;2024-03-06T02:55:47;5.80;;;4.23;;
11763;SDS011;5939;56.522;14.950;2024-03-06T02:58:13;6.63;;;3.80;;
11763;SDS011;5939;56.522;14.950;2024-03-06T03:00:39;5.90;;;3.93;;
11763;SDS011;5939;56.522;14.950;2024-03-06T03:03:08;7.07;;;4.30;;
11763;SDS011;5939;56.522;14.950;2024-03-06T03:05:37;6.73;;;4.03;;
11763;SDS011;5939;56.522;14.950;2024-03-06T03:08:03;6.83;;;4.40;;
11763;SDS011;5939;56.522;14.950;2024-03-06T03:10:29;7.43;;;4.53;;
11763;SDS011;5939;56.522;14.950;2024-03-06T03:12:54;5.47;;;3.97;;
11763;SDS011;5939;56.522;14.950;2024-03-06T03:15:20;7.13;;;4.60;;
11763;SDS011;5939;56.522;14.950;2024-03-06T03:17:46;6.37;;;4.23;;
11763;SDS011;5939;56.522;14.950;2024-03-06T03:20:12;7.67;;;4.70;;
11763;SDS011;5939;56.522;14.950;2024-03-06T03:22:41;6.73;;;3.97;;
11763;SDS011;5939;56.522;14.950;2024-03-06T03:25:07;4.90;;;3.97;;
11763;SDS011;5939;56.522;14.950;2024-03-06T03:27:40;7.57;;;4.10;;
11763;SDS011;5939;56.522;14.950;2024-03-06T03:30:09;4.80;;;3.60;;
11763;SDS011;5939;56.522;14.950;2024-03-06T03:32:35;7.97;;;3.90;;
11763;SDS011;5939;56.522;14.950;2024-03-06T03:35:03;6.93;;;4.37;;
11763;SDS011;5939;56.522;14.950;2024-03-06T03:37:30;6.37;;;3.97;;
11763;SDS011;5939;56.522;14.950;2024-03-06T03:39:56;6.87;;;4.40;;
11763;SDS011;5939;56.522;14.950;2024-03-06T03:42:22;6.57;;;4.10;;
11763;SDS011;5939;56.522;14.950;2024-03-06T03:44:47;6.70;;;4.37;;
11763;SDS011;5939;56.522;14.950;2024-03-06T03:47:13;7.13;;;4.70;;
11763;SDS011;5939;56.522;14.950;2024-03-06T03:49:39;6.97;;;4.10;;
11763;SDS011;5939;56.522;14.950;2024-03-06T03:52:04;6.50;;;4.17;;
11763;SDS011;5939;56.522;14.950;2024-03-06T03:54:30;6.53;;;4.10;;
11763;SDS011;5939;56.522;14.950;2024-03-06T03:56:56;6.60;;;4.53;;
11763;SDS011;5939;56.522;14.950;2024-03-06T03:59:24;8.23;;;4.20;;
11763;SDS011;5939;56.522;14.950;2024-03-06T04:01:50;6.67;;;4.00;;
11763;SDS011;5939;56.522;14.950;2024-03-06T04:04:15;6.13;;;4.33;;
11763;SDS011;5939;56.522;14.950;2024-03-06T04:06:41;6.33;;;3.90;;
11763;SDS011;5939;56.522;14.950;2024-03-06T04:09:06;6.57;;;3.90;;
11763;SDS011;5939;56.522;14.950;2024-03-06T04:11:35;7.57;;;4.40;;
11763;SDS011;5939;56.522;14.950;2024-03-06T04:14:02;6.50;;;4.70;;
11763;SDS011;5939;56.522;14.950;2024-03-06T04:16:31;6.80;;;4.80;;
11763;SDS011;5939;56.522;14.950;2024-03-06T04:18:57;8.00;;;4.57;;
11763;SDS011;5939;56.522;14.950;2024-03-06T04:21:23;6.67;;;4.37;;
11763;SDS011;5939;56.522;14.950;2024-03-06T04:23:49;7.70;;;4.07;;
11763;SDS011;5939;56.522;14.950;2024-03-06T04:26:14;7.23;;;4.27;;
11763;SDS011;5939;56.522;14.950;2024-03-06T04:28:40;6.70;;;4.23;;
11763;SDS011;5939;56.522;14.950;2024-03-06T04:31:06;5.57;;;3.77;;
11763;SDS011;5939;56.522;14.950;2024-03-06T04:33:33;5.90;;;4.33;;
11763;SDS011;5939;56.522;14.950;2024-03-06T04:36:00;7.67;;;4.37;;
11763;SDS011;5939;56.522;14.950;2024-03-06T04:38:27;7.27;;;4.43;;
11763;SDS011;5939;56.522;14.950;2024-03-06T04:40:54;4.90;;;3.93;;
11763;SDS011;5939;56.522;14.950;2024-03-06T04:43:19;6.57;;;4.27;;
11763;SDS011;5939;56.522;14.950;2024-03-06T04:45:45;6.73;;;3.77;;
11763;SDS011;5939;56.522;14.950;2024-03-06T04:48:11;6.60;;;3.83;;
11763;SDS011;5939;56.522;14.950;2024-03-06T04:50:37;7.37;;;4.03;;
11763;SDS011;5939;56.522;14.950;2024-03-06T04:53:02;6.23;;;4.30;;
11763;SDS011;5939;56.522;14.950;2024-03-06T04:55:28;5.77;;;3.43;;
11763;SDS011;5939;56.522;14.950;2024-03-06T04:57:55;6.83;;;4.10;;
11763;SDS011;5939;56.522;14.950;2024-03-06T05:00:21;5.97;;;4.43;;
11763;SDS011;5939;56.522;14.950;2024-03-06T05:02:47;5.93;;;3.90;;
11763;SDS011;5939;56.522;14.950;2024-03-06T05:05:14;6.53;;;4.10;;
11763;SDS011;5939;56.522;14.950;2024-03-06T05:07:40;6.40;;;4.30;;
11763;SDS011;5939;56.522;14.950;2024-03-06T05:10:06;6.73;;;4.63;;
11763;SDS011;5939;56.522;14.950;2024-03-06T05:12:35;6.97;;;4.60;;
11763;SDS011;5939;56.522;14.950;2024-03-06T05:15:00;7.93;;;4.20;;
11763;SDS011;5939;56.522;14.950;2024-03-06T05:17:26;6.90;;;4.30;;
11763;SDS011;5939;56.522;14.950;2024-03-06T05:19:52;6.50;;;3.80;;
11763;SDS011;5939;56.522;14.950;2024-03-06T05:22:20;6.53;;;4.20;;
11763;SDS011;5939;56.522;14.950;2024-03-06T05:24:46;7.73;;;4.47;;
11763;SDS011;5939;56.522;14.950;2024-03-06T05:27:12;7.30;;;4.27;;
11763;SDS011;5939;56.522;14.950;2024-03-06T05:29:41;6.10;;;3.60;;
11763;SDS011;5939;56.522;14.950;2024-03-06T05:32:07;7.47;;;4.60;;
11763;SDS011;5939;56.522;14.950;2024-03-06T05:34:33;7.27;;;4.77;;
11763;SDS011;5939;56.522;14.950;2024-03-06T05:36:59;6.20;;;4.53;;
11763;SDS011;5939;56.522;14.950;2024-03-06T05:39:26;5.17;;;3.90;;
11763;SDS011;5939;56.522;14.950;2024-03-06T05:41:53;6.43;;;4.53;;
11763;SDS011;5939;56.522;14.950;2024-03-06T05:44:20;6.93;;;4.37;;
11763;SDS011;5939;56.522;14.950;2024-03-06T05:46:46;6.73;;;4.00;;
11763;SDS011;5939;56.522;14.950;2024-03-06T05:49:12;9.77;;;4.97;;
11763;SDS011;5939;56.522;14.950;2024-03-06T05:51:38;7.50;;;4.37;;
11763;SDS011;5939;56.522;14.950;2024-03-06T05:54:04;7.50;;;4.20;;
11763;SDS011;5939;56.522;14.950;2024-03-06T05:56:33;7.60;;;4.23;;
11763;SDS011;5939;56.522;14.950;2024-03-06T05:58:59;7.23;;;5.03;;
11763;SDS011;5939;56.522;14.950;2024-03-06T06:01:29;6.07;;;4.30;;
11763;SDS011;5939;56.522;14.950;2024-03-06T06:04:01;5.90;;;4.63;;
11763;SDS011;5939;56.522;14.950;2024-03-06T06:06:27;5.70;;;4.07;;
11763;SDS011;5939;56.522;14.950;2024-03-06T06:08:53;7.57;;;4.70;;
11763;SDS011;5939;56.522;14.950;2024-03-06T06:11:19;8.73;;;4.70;;
11763;SDS011;5939;56.522;14.950;2024-03-06T06:13:45;5.43;;;4.03;;
11763;SDS011;5939;56.522;14.950;2024-03-06T06:16:10;7.60;;;4.67;;
11763;SDS011;5939;56.522;14.950;2024-03-06T06:18:36;6.47;;;4.13;;
11763;SDS011;5939;56.522;14.950;2024-03-06T06:21:02;7.47;;;4.47;;
11763;SDS011;5939;56.522;14.950;2024-03-06T06:23:32;8.80;;;4.77;;
11763;SDS011;5939;56.522;14.950;2024-03-06T06:25:58;8.30;;;4.70;;
11763;SDS011;5939;56.522;14.950;2024-03-06T06:28:23;7.73;;;4.23;;
11763;SDS011;5939;56.522;14.950;2024-03-06T06:30:49;7.70;;;4.60;;
11763;SDS011;5939;56.522;14.950;2024-03-06T06:33:17;7.77;;;4.20;;
11763;SDS011;5939;56.522;14.950;2024-03-06T06:35:44;5.63;;;4.03;;
11763;SDS011;5939;56.522;14.950;2024-03-06T06:38:10;7.53;;;4.10;;
11763;SDS011;5939;56.522;14.950;2024-03-06T06:40:35;8.70;;;4.70;;
11763;SDS011;5939;56.522;14.950;2024-03-06T06:43:01;7.73;;;4.10;;
11763;SDS011;5939;56.522;14.950;2024-03-06T06:45:27;5.77;;;4.20;;
11763;SDS011;5939;56.522;14.950;2024-03-06T06:47:53;6.07;;;3.97;;
11763;SDS011;5939;56.522;14.950;2024-03-06T06:50:18;7.67;;;4.73;;
11763;SDS011;5939;56.522;14.950;2024-03-06T06:52:47;8.17;;;4.50;;
11763;SDS011;5939;56.522;14.950;2024-03-06T06:55:13;6.17;;;3.97;;
11763;SDS011;5939;56.522;14.950;2024-03-06T06:57:39;6.33;;;4.27;;
11763;SDS011;5939;56.522;14.950;2024-03-06T07:00:05;7.90;;;4.20;;
11763;SDS011;5939;56.522;14.950;2024-03-06T07:02:44;6.80;;;3.77;;
11763;SDS011;5939;56.522;14.950;2024-03-06T07:05:11;5.60;;;4.10;;
11763;SDS011;5939;56.522;14.950;2024-03-06T07:07:37;7.73;;;4.60;;
11763;SDS011;5939;56.522;14.950;2024-03-06T07:10:04;5.97;;;4.40;;
11763;SDS011;5939;56.522;14.950;2024-03-06T07:12:30;8.37;;;4.53;;
11763;SDS011;5939;56.522;14.950;2024-03-06T07:14:57;7.60;;;4.43;;
11763;SDS011;5939;56.522;14.950;2024-03-06T07:17:23;5.30;;;4.20;;
11763;SDS011;5939;56.522;14.950;2024-03-06T07:19:49;6.50;;;4.60;;
11763;SDS011;5939;56.522;14.950;2024-03-06T07:22:15;11.63;;;5.10;;
11763;SDS011;5939;56.522;14.950;2024-03-06T07:24:41;7.33;;;4.40;;
11763;SDS011;5939;56.522;14.950;2024-03-06T07:27:07;6.40;;;4.50;;
11763;SDS011;5939;56.522;14.950;2024-03-06T07:29:36;7.17;;;4.37;;
11763;SDS011;5939;56.522;14.950;2024-03-06T07:32:01;5.70;;;4.60;;
11763;SDS011;5939;56.522;14.950;2024-03-06T07:34:28;6.23;;;4.30;;
11763;SDS011;5939;56.522;14.950;2024-03-06T07:36:54;5.57;;;4.13;;
11763;SDS011;5939;56.522;14.950;2024-03-06T07:39:20;6.43;;;4.47;;
11763;SDS011;5939;56.522;14.950;2024-03-06T07:41:45;8.97;;;4.40;;
11763;SDS011;5939;56.522;14.950;2024-03-06T07:44:11;5.97;;;4.30;;
11763;SDS011;5939;56.522;14.950;2024-03-06T07:46:38;8.13;;;4.93;;
11763;SDS011;5939;56.522;14.950;2024-03-06T07:49:03;7.30;;;4.57;;
11763;SDS011;5939;56.522;14.950;2024-03-06T07:51:30;6.67;;;4.33;;
11763;SDS011;5939;56.522;14.950;2024-03-06T07:53:56;9.20;;;4.13;;
11763;SDS011;5939;56.522;14.950;2024-03-06T07:56:23;7.87;;;4.83;;
11763;SDS011;5939;56.522;14.950;2024-03-06T07:58:49;7.43;;;4.53;;
11763;SDS011;5939;56.522;14.950;2024-03-06T08:01:15;6.50;;;4.23;;
11763;SDS011;5939;56.522;14.950;2024-03-06T08:03:42;6.80;;;4.23;;
11763;SDS011;5939;56.522;14.950;2024-03-06T08:06:08;8.03;;;4.90;;
11763;SDS011;5939;56.522;14.950;2024-03-06T08:08:34;6.43;;;4.53;;
11763;SDS011;5939;56.522;14.950;2024-03-06T08:11:00;6.97;;;4.50;;
11763;SDS011;5939;56.522;14.950;2024-03-06T08:13:26;4.67;;;4.03;;
11763;SDS011;5939;56.522;14.950;2024-03-06T08:15:52;6.37;;;4.33;;
11763;SDS011;5939;56.522;14.950;2024-03-06T08:18:18;5.90;;;4.43;;
11763;SDS011;5939;56.522;14.950;2024-03-06T08:20:44;6.20;;;4.33;;
11763;SDS011;5939;56.522;14.950;2024-03-06T08:23:10;8.53;;;5.10;;
11763;SDS011;5939;56.522;14.950;2024-03-06T08:25:35;5.77;;;4.47;;
11763;SDS011;5939;56.522;14.950;2024-03-06T08:28:01;7.27;;;4.87;;
11763;SDS011;5939;56.522;14.950;2024-03-06T08:30:30;8.17;;;4.47;;
11763;SDS011;5939;56.522;14.950;2024-03-06T08:32:56;7.20;;;4.37;;
11763;SDS011;5939;56.522;14.950;2024-03-06T08:35:22;6.60;;;4.53;;
11763;SDS011;5939;56.522;14.950;2024-03-06T08:37:49;6.37;;;4.60;;
11763;SDS011;5939;56.522;14.950;2024-03-06T08:40:18;7.63;;;4.60;;
11763;SDS011;5939;56.522;14.950;2024-03-06T08:42:44;6.43;;;4.70;;
11763;SDS011;5939;56.522;14.950;2024-03-06T08:45:12;6.23;;;4.27;;
11763;SDS011;5939;56.522;14.950;2024-03-06T08:47:39;6.10;;;4.67;;
11763;SDS011;5939;56.522;14.950;2024-03-06T08:50:04;9.53;;;4.93;;
11763;SDS011;5939;56.522;14.950;2024-03-06T08:52:32;6.27;;;4.37;;
11763;SDS011;5939;56.522;14.950;2024-03-06T08:54:59;5.47;;;4.43;;
11763;SDS011;5939;56.522;14.950;2024-03-06T08:57:25;6.60;;;4.57;;
11763;SDS011;5939;56.522;14.950;2024-03-06T08:59:53;6.47;;;4.60;;
11763;SDS011;5939;56.522;14.950;2024-03-06T09:02:19;5.63;;;4.53;;
11763;SDS011;5939;56.522;14.950;2024-03-06T09:04:46;7.33;;;4.67;;
11763;SDS011;5939;56.522;14.950;2024-03-06T09:07:12;6.70;;;4.40;;
11763;SDS011;5939;56.522;14.950;2024-03-06T09:09:38;8.87;;;4.40;;
11763;SDS011;5939;56.522;14.950;2024-03-06T09:12:05;7.30;;;4.63;;
11763;SDS011;5939;56.522;14.950;2024-03-06T09:14:32;6.60;;;4.50;;
11763;SDS011;5939;56.522;14.950;2024-03-06T09:16:58;8.73;;;4.70;;
11763;SDS011;5939;56.522;14.950;2024-03-06T09:19:23;6.63;;;4.47;;
11763;SDS011;5939;56.522;14.950;2024-03-06T09:21:49;6.73;;;4.23;;
11763;SDS011;5939;56.522;14.950;2024-03-06T09:24:15;9.37;;;4.67;;
11763;SDS011;5939;56.522;14.950;2024-03-06T09:26:40;8.57;;;4.73;;
11763;SDS011;5939;56.522;14.950;2024-03-06T09:29:06;8.17;;;4.90;;
11763;SDS011;5939;56.522;14.950;2024-03-06T09:31:32;8.13;;;4.90;;
11763;SDS011;5939;56.522;14.950;2024-03-06T09:33:57;7.20;;;4.73;;
11763;SDS011;5939;56.522;14.950;2024-03-06T09:36:23;6.03;;;4.27;;
11763;SDS011;5939;56.522;14.950;2024-03-06T09:38:50;7.30;;;4.57;;
11763;SDS011;5939;56.522;14.950;2024-03-06T09:41:17;7.37;;;4.77;;
11763;SDS011;5939;56.522;14.950;2024-03-06T09:43:44;7.40;;;4.20;;
11763;SDS011;5939;56.522;14.950;2024-03-06T09:46:10;7.87;;;4.97;;
11763;SDS011;5939;56.522;14.950;2024-03-06T09:48:35;6.93;;;4.43;;
11763;SDS011;5939;56.522;14.950;2024-03-06T09:51:08;6.87;;;4.27;;
11763;SDS011;5939;56.522;14.950;2024-03-06T09:53:33;7.40;;;4.60;;
11763;SDS011;5939;56.522;14.950;2024-03-06T09:55:59;6.33;;;4.17;;
11763;SDS011;5939;56.522;14.950;2024-03-06T09:58:25;8.43;;;4.10;;
11763;SDS011;5939;56.522;14.950;2024-03-06T10:00:51;7.50;;;4.30;;
11763;SDS011;5939;56.522;14.950;2024-03-06T10:03:20;7.37;;;4.77;;
11763;SDS011;5939;56.522;14.950;2024-03-06T10:05:45;7.13;;;4.20;;
11763;SDS011;5939;56.522;14.950;2024-03-06T10:08:11;5.93;;;4.43;;
11763;SDS011;5939;56.522;14.950;2024-03-06T10:10:37;7.23;;;4.43;;
11763;SDS011;5939;56.522;14.950;2024-03-06T10:13:02;8.17;;;4.70;;
11763;SDS011;5939;56.522;14.950;2024-03-06T10:15:28;7.33;;;4.20;;
11763;SDS011;5939;56.522;14.950;2024-03-06T10:18:10;7.33;;;4.33;;
11763;SDS011;5939;56.522;14.950;2024-03-06T10:20:40;7.27;;;4.10;;
11763;SDS011;5939;56.522;14.950;2024-03-06T10:23:09;7.13;;;4.40;;
11763;SDS011;5939;56.522;14.950;2024-03-06T10:25:34;6.37;;;4.17;;
11763;SDS011;5939;56.522;14.950;2024-03-06T10:28:07;8.87;;;4.77;;
11763;SDS011;5939;56.522;14.950;2024-03-06T10:30:34;7.77;;;4.50;;
11763;SDS011;5939;56.522;14.950;2024-03-06T10:33:05;7.23;;;3.40;;
11763;SDS011;5939;56.522;14.950;2024-03-06T10:35:31;5.70;;;4.40;;
11763;SDS011;5939;56.522;14.950;2024-03-06T10:37:59;6.60;;;4.20;;
11763;SDS011;5939;56.522;14.950;2024-03-06T10:40:27;6.80;;;4.37;;
11763;SDS011;5939;56.522;14.950;2024-03-06T10:42:56;8.97;;;4.53;;
11763;SDS011;5939;56.522;14.950;2024-03-06T10:45:23;6.00;;;4.73;;
11763;SDS011;5939;56.522;14.950;2024-03-06T10:48:10;7.43;;;4.07;;
11763;SDS011;5939;56.522;14.950;2024-03-06T10:50:42;9.30;;;4.03;;
11763;SDS011;5939;56.522;14.950;2024-03-06T10:53:14;8.20;;;4.83;;
11763;SDS011;5939;56.522;14.950;2024-03-06T10:55:42;5.90;;;4.30;;
11763;SDS011;5939;56.522;14.950;2024-03-06T10:58:12;5.93;;;3.90;;
11763;SDS011;5939;56.522;14.950;2024-03-06T11:00:38;6.30;;;4.10;;
11763;SDS011;5939;56.522;14.950;2024-03-06T11:03:08;7.57;;;4.37;;
11763;SDS011;5939;56.522;14.950;2024-03-06T11:05:38;5.33;;;4.07;;
11763;SDS011;5939;56.522;14.950;2024-03-06T11:08:08;6.97;;;4.20;;
11763;SDS011;5939;56.522;14.950;2024-03-06T11:10:35;5.57;;;4.60;;
11763;SDS011;5939;56.522;14.950;2024-03-06T11:13:02;6.63;;;4.20;;
11763;SDS011;5939;56.522;14.950;2024-03-06T11:15:30;6.63;;;4.30;;
11763;SDS011;5939;56.522;14.950;2024-03-06T11:17:56;6.03;;;4.37;;
11763;SDS011;5939;56.522;14.950;2024-03-06T11:20:22;6.67;;;4.27;;
11763;SDS011;5939;56.522;14.950;2024-03-06T11:28:22;4.93;;;4.03;;
11763;SDS011;5939;56.522;14.950;2024-03-06T11:31:10;5.97;;;3.83;;
11763;SDS011;5939;56.522;14.950;2024-03-06T11:33:44;6.40;;;4.20;;
11763;SDS011;5939;56.522;14.950;2024-03-06T11:36:18;5.57;;;4.10;;
11763;SDS011;5939;56.522;14.950;2024-03-06T11:38:51;8.63;;;3.67;;
11763;SDS011;5939;56.522;14.950;2024-03-06T11:42:00;7.23;;;4.27;;
11763;SDS011;5939;56.522;14.950;2024-03-06T11:44:12;4.20;;;3.57;;
11763;SDS011;5939;56.522;14.950;2024-03-06T11:47:12;5.40;;;4.13;;
11763;SDS011;5939;56.522;14.950;2024-03-06T11:49:33;6.10;;;4.50;;
11763;SDS011;5939;56.522;14.950;2024-03-06T11:52:03;5.63;;;4.13;;
11763;SDS011;5939;56.522;14.950;2024-03-06T11:54:30;5.90;;;3.93;;
11763;SDS011;5939;56.522;14.950;2024-03-06T11:56:57;5.83;;;4.00;;
11763;SDS011;5939;56.522;14.950;2024-03-06T11:59:27;5.10;;;4.10;;
11763;SDS011;5939;56.522;14.950;2024-03-06T12:02:00;5.63;;;3.80;;
11763;SDS011;5939;56.522;14.950;2024-03-06T12:04:29;6.07;;;3.83;;
11763;SDS011;5939;56.522;14.950;2024-03-06T12:06:58;5.33;;;3.70;;
11763;SDS011;5939;56.522;14.950;2024-03-06T12:09:25;5.80;;;3.93;;
11763;SDS011;5939;56.522;14.950;2024-03-06T12:11:52;5.50;;;3.33;;
11763;SDS011;5939;56.522;14.950;2024-03-06T12:14:18;4.83;;;3.60;;
11763;SDS011;5939;56.522;14.950;2024-03-06T12:16:54;5.13;;;3.47;;
11763;SDS011;5939;56.522;14.950;2024-03-06T12:19:27;7.00;;;3.67;;
11763;SDS011;5939;56.522;14.950;2024-03-06T12:22:04;5.57;;;3.70;;
11763;SDS011;5939;56.522;14.950;2024-03-06T12:24:30;5.67;;;3.67;;
11763;SDS011;5939;56.522;14.950;2024-03-06T12:26:59;5.13;;;3.83;;
11763;SDS011;5939;56.522;14.950;2024-03-06T12:29:28;5.30;;;3.90;;
11763;SDS011;5939;56.522;14.950;2024-03-06T12:32:04;5.33;;;3.30;;
11763;SDS011;5939;56.522;14.950;2024-03-06T12:34:32;4.63;;;3.57;;
11763;SDS011;5939;56.522;14.950;2024-03-06T12:37:10;5.37;;;3.67;;
11763;SDS011;5939;56.522;14.950;2024-03-06T12:39:36;5.63;;;3.47;;
11763;SDS011;5939;56.522;14.950;2024-03-06T12:42:01;4.83;;;4.10;;
11763;SDS011;5939;56.522;14.950;2024-03-06T12:44:27;4.30;;;3.30;;
11763;SDS011;5939;56.522;14.950;2024-03-06T12:46:52;5.83;;;3.57;;
11763;SDS011;5939;56.522;14.950;2024-03-06T12:49:18;5.17;;;3.80;;
11763;SDS011;5939;56.522;14.950;2024-03-06T12:51:44;5.33;;;3.47;;
11763;SDS011;5939;56.522;14.950;2024-03-06T12:54:09;5.00;;;3.23;;
11763;SDS011;5939;56.522;14.950;2024-03-06T12:56:35;3.67;;;3.20;;
11763;SDS011;5939;56.522;14.950;2024-03-06T12:59:01;4.60;;;3.40;;
11763;SDS011;5939;56.522;14.950;2024-03-06T13:01:26;5.03;;;3.67;;
11763;SDS011;5939;56.522;14.950;2024-03-06T13:03:52;4.30;;;3.30;;
11763;SDS011;5939;56.522;14.950;2024-03-06T13:06:18;6.27;;;3.43;;
11763;SDS011;5939;56.522;14.950;2024-03-06T13:08:43;4.90;;;3.60;;
11763;SDS011;5939;56.522;14.950;2024-03-06T13:11:09;5.33;;;3.77;;
11763;SDS011;5939;56.522;14.950;2024-03-06T13:13:35;5.67;;;3.80;;
11763;SDS011;5939;56.522;14.950;2024-03-06T13:16:02;4.33;;;3.37;;
11763;SDS011;5939;56.522;14.950;2024-03-06T13:18:28;4.43;;;3.10;;
11763;SDS011;5939;56.522;14.950;2024-03-06T13:20:54;4.47;;;3.50;;
11763;SDS011;5939;56.522;14.950;2024-03-06T13:23:20;4.43;;;3.30;;
11763;SDS011;5939;56.522;14.950;2024-03-06T13:25:47;5.30;;;3.37;;
11763;SDS011;5939;56.522;14.950;2024-03-06T13:28:12;3.97;;;3.37;;
11763;SDS011;5939;56.522;14.950;2024-03-06T13:30:38;4.97;;;3.53;;
11763;SDS011;5939;56.522;14.950;2024-03-06T13:33:04;6.03;;;3.17;;
11763;SDS011;5939;56.522;14.950;2024-03-06T13:35:30;3.87;;;3.23;;
11763;SDS011;5939;56.522;14.950;2024-03-06T13:37:56;5.57;;;3.50;;
11763;SDS011;5939;56.522;14.950;2024-03-06T13:40:22;4.53;;;3.30;;
11763;SDS011;5939;56.522;14.950;2024-03-06T13:42:47;4.90;;;3.37;;
11763;SDS011;5939;56.522;14.950;2024-03-06T13:45:13;4.80;;;3.60;;
11763;SDS011;5939;56.522;14.950;2024-03-06T13:47:42;4.17;;;3.37;;
11763;SDS011;5939;56.522;14.950;2024-03-06T13:50:12;4.30;;;3.30;;
11763;SDS011;5939;56.522;14.950;2024-03-06T13:52:40;6.23;;;3.57;;
11763;SDS011;5939;56.522;14.950;2024-03-06T13:55:06;4.87;;;3.47;;
11763;SDS011;5939;56.522;14.950;2024-03-06T13:57:33;4.57;;;3.40;;
11763;SDS011;5939;56.522;14.950;2024-03-06T14:00:07;3.53;;;3.10;;
11763;SDS011;5939;56.522;14.950;2024-03-06T14:02:43;3.90;;;2.80;;
11763;SDS011;5939;56.522;14.950;2024-03-06T14:05:10;5.73;;;3.27;;
11763;SDS011;5939;56.522;14.950;2024-03-06T14:07:37;4.13;;;3.07;;
11763;SDS011;5939;56.522;14.950;2024-03-06T14:10:03;5.17;;;3.27;;
11763;SDS011;5939;56.522;14.950;2024-03-06T14:12:29;3.57;;;2.50;;
11763;SDS011;5939;56.522;14.950;2024-03-06T14:14:55;3.80;;;3.30;;
11763;SDS011;5939;56.522;14.950;2024-03-06T14:17:21;4.53;;;3.00;;
11763;SDS011;5939;56.522;14.950;2024-03-06T14:19:46;4.87;;;3.10;;
11763;SDS011;5939;56.522;14.950;2024-03-06T14:22:12;3.83;;;3.20;;
11763;SDS011;5939;56.522;14.950;2024-03-06T14:24:38;5.43;;;3.37;;
11763;SDS011;5939;56.522;14.950;2024-03-06T14:27:03;4.53;;;3.43;;
11763;SDS011;5939;56.522;14.950;2024-03-06T14:29:30;5.97;;;3.20;;
11763;SDS011;5939;56.522;14.950;2024-03-06T14:31:56;5.83;;;3.30;;
11763;SDS011;5939;56.522;14.950;2024-03-06T14:34:22;3.60;;;3.00;;
11763;SDS011;5939;56.522;14.950;2024-03-06T14:36:49;5.17;;;3.50;;
11763;SDS011;5939;56.522;14.950;2024-03-06T14:39:15;4.60;;;2.90;;
11763;SDS011;5939;56.522;14.950;2024-03-06T14:41:41;4.30;;;3.17;;
11763;SDS011;5939;56.522;14.950;2024-03-06T14:44:08;5.17;;;3.13;;
11763;SDS011;5939;56.522;14.950;2024-03-06T14:46:34;5.23;;;3.00;;
11763;SDS011;5939;56.522;14.950;2024-03-06T14:48:59;5.43;;;3.53;;
11763;SDS011;5939;56.522;14.950;2024-03-06T14:51:27;5.23;;;3.10;;
11763;SDS011;5939;56.522;14.950;2024-03-06T14:53:53;4.50;;;3.50;;